Time;durP1;ratioP1;P1;durP2;ratioP2;P2;SDS_P1;SDS_P2;PMS_P1;PMS_P2;Temp;Humidity;BMP_temperature;BMP_pressure;BME280_temperature;BME280_humidity;BME280_pressure;Samples;Min_cycle;Max_cycle;Signal;HPM_P1;HPM_P2
2023/10/07 00:02:16;;;;;;;20.10;4.88;;;17.50;99.90;;;;;;4899871;29;20428;-81
2023/10/07 00:04:44;;;;;;;20.30;5.30;;;18.00;99.90;;;;;;4908709;29;20437;-81
2023/10/07 00:07:11;;;;;;;13.82;4.75;;;17.70;99.90;;;;;;4911252;29;20491;-81
2023/10/07 00:09:41;;;;;;;19.83;5.20;;;17.80;99.90;;;;;;4882222;29;20503;-81
2023/10/07 00:12:14;;;;;;;18.15;5.28;;;17.70;99.90;;;;;;4885345;29;20465;-80
2023/10/07 00:14:41;;;;;;;18.70;5.22;;;17.60;99.90;;;;;;4897341;29;20437;-80
2023/10/07 00:17:16;;;;;;;18.60;4.93;;;17.50;99.90;;;;;;4921221;29;20752;-81
2023/10/07 00:19:46;;;;;;;17.02;4.72;;;17.80;99.90;;;;;;4882742;29;20510;-81
2023/10/07 00:22:19;;;;;;;15.90;4.80;;;17.80;99.90;;;;;;4897806;29;20434;-81
2023/10/07 00:24:48;;;;;;;19.25;5.88;;;17.40;99.90;;;;;;4897316;29;20425;-81
2023/10/07 00:27:26;;;;;;;19.90;4.85;;;17.30;99.90;;;;;;4912564;29;20425;-81
2023/10/07 00:29:55;;;;;;;17.48;4.80;;;17.50;99.90;;;;;;4914303;29;20767;-81
2023/10/07 00:32:31;;;;;;;16.73;4.63;;;17.50;99.90;;;;;;4888864;29;20431;-81
2023/10/07 00:35:00;;;;;;;17.20;4.70;;;16.60;99.90;;;;;;4898342;29;20990;-81
2023/10/07 00:37:26;;;;;;;15.67;4.73;;;17.80;99.90;;;;;;4891739;29;20421;-81
2023/10/07 00:40:00;;;;;;;17.48;5.20;;;17.70;99.90;;;;;;4889302;29;20488;-81
2023/10/07 00:42:28;;;;;;;18.48;5.43;;;17.70;99.90;;;;;;4883511;29;20430;-81
2023/10/07 00:44:55;;;;;;;27.67;5.60;;;17.60;99.90;;;;;;4909515;29;20437;-81
2023/10/07 00:47:21;;;;;;;15.47;4.77;;;17.60;99.90;;;;;;4904167;29;20446;-80
2023/10/07 00:52:40;;;;;;;17.13;5.57;;;17.70;99.90;;;;;;4899276;29;20439;-81
2023/10/07 00:55:18;;;;;;;16.90;5.28;;;17.60;99.90;;;;;;4881149;29;20419;-81
2023/10/07 00:57:53;;;;;;;21.10;5.40;;;17.50;99.90;;;;;;4890102;29;20425;-81
2023/10/07 01:02:46;;;;;;;16.95;5.28;;;16.80;99.90;;;;;;4907342;29;20417;-81
2023/10/07 01:05:21;;;;;;;18.63;5.27;;;17.50;99.90;;;;;;4887592;29;20426;-81
2023/10/07 01:07:53;;;;;;;18.25;5.00;;;17.60;99.90;;;;;;4883137;29;20427;-81
2023/10/07 01:10:24;;;;;;;16.38;5.28;;;17.60;99.90;;;;;;4894850;29;20472;-81
2023/10/07 01:12:51;;;;;;;14.63;5.05;;;17.40;99.90;;;;;;4905627;29;20448;-82
2023/10/07 01:15:22;;;;;;;15.63;5.40;;;17.80;99.90;;;;;;4899798;29;20514;-81
2023/10/07 01:17:53;;;;;;;20.08;5.53;;;17.50;99.90;;;;;;4875740;29;20915;-81
2023/10/07 01:20:23;;;;;;;15.63;5.00;;;17.10;99.90;;;;;;4911900;29;20476;-81
2023/10/07 01:23:04;;;;;;;15.77;5.53;;;17.50;99.90;;;;;;4898193;29;20513;-81
2023/10/07 01:25:34;;;;;;;15.38;4.90;;;17.60;99.90;;;;;;4882715;29;20427;-81
2023/10/07 01:28:02;;;;;;;15.73;5.03;;;17.70;99.90;;;;;;4898317;29;20518;-81
2023/10/07 01:30:34;;;;;;;16.95;4.63;;;17.60;99.90;;;;;;4887252;29;20797;-80
2023/10/07 01:35:39;;;;;;;16.77;4.80;;;17.70;99.90;;;;;;4918391;29;20419;-80
2023/10/07 01:38:08;;;;;;;17.05;4.82;;;17.80;99.90;;;;;;4895067;29;20419;-81
2023/10/07 01:40:54;;;;;;;16.85;5.18;;;17.80;99.90;;;;;;4900862;29;20486;-81
2023/10/07 01:43:20;;;;;;;14.13;4.55;;;17.80;99.90;;;;;;4880024;29;20926;-81
2023/10/07 01:45:52;;;;;;;15.15;4.32;;;17.70;99.90;;;;;;4908861;29;20564;-80
2023/10/07 01:48:18;;;;;;;15.27;4.40;;;18.00;99.90;;;;;;4907304;29;20423;-81
2023/10/07 01:50:45;;;;;;;18.00;4.85;;;18.00;99.90;;;;;;4876550;29;20945;-81
2023/10/07 01:53:11;;;;;;;14.40;4.25;;;17.70;99.90;;;;;;4891627;29;20439;-81
2023/10/07 01:55:44;;;;;;;17.23;4.50;;;17.90;99.90;;;;;;4896598;29;20749;-81
2023/10/07 01:58:14;;;;;;;20.17;4.43;;;17.70;99.90;;;;;;4909528;29;20479;-81
2023/10/07 02:00:45;;;;;;;12.52;4.50;;;17.90;99.90;;;;;;4900226;29;20430;-81
2023/10/07 02:03:23;;;;;;;13.90;4.50;;;18.10;99.90;;;;;;4898620;29;20421;-81
2023/10/07 02:05:50;;;;;;;15.40;4.50;;;17.90;99.90;;;;;;4913087;29;20425;-81
2023/10/07 02:08:21;;;;;;;11.38;4.45;;;18.00;99.90;;;;;;4907103;29;20423;-81
2023/10/07 02:10:52;;;;;;;15.60;4.25;;;18.20;99.90;;;;;;4872096;29;20469;-81
2023/10/07 02:13:19;;;;;;;12.90;4.30;;;18.00;99.90;;;;;;4896598;29;20479;-81
2023/10/07 02:15:46;;;;;;;16.38;4.43;;;18.10;99.90;;;;;;4912255;29;20415;-81
2023/10/07 02:18:18;;;;;;;15.93;4.38;;;18.10;99.90;;;;;;4918830;29;20827;-81
2023/10/07 02:21:07;;;;;;;15.35;4.00;;;18.30;99.90;;;;;;4903603;29;20494;-81
2023/10/07 02:23:43;;;;;;;15.45;4.13;;;17.40;99.90;;;;;;4895061;29;20421;-81
2023/10/07 02:26:19;;;;;;;14.98;4.28;;;18.10;99.90;;;;;;4914765;29;20425;-81
2023/10/07 02:28:50;;;;;;;14.80;4.40;;;18.00;99.90;;;;;;4897071;29;20425;-81
2023/10/07 02:31:20;;;;;;;19.05;4.30;;;17.90;99.90;;;;;;4901144;29;20464;-81
2023/10/07 02:33:51;;;;;;;14.40;4.28;;;17.90;99.90;;;;;;4878406;29;20423;-81
2023/10/07 02:36:39;;;;;;;17.77;4.57;;;18.20;99.90;;;;;;4914314;29;20907;-81
2023/10/07 02:39:24;;;;;;;15.47;4.40;;;17.40;99.90;;;;;;4913927;29;20466;-81
2023/10/07 02:41:50;;;;;;;16.15;4.82;;;18.10;99.90;;;;;;4895289;29;20938;-81
2023/10/07 02:44:18;;;;;;;13.80;4.10;;;18.00;99.90;;;;;;4885545;29;20433;-81
2023/10/07 02:46:52;;;;;;;17.27;4.63;;;18.00;99.90;;;;;;4901273;29;20426;-80
2023/10/07 02:49:20;;;;;;;15.27;4.68;;;18.00;99.90;;;;;;4885545;29;20481;-81
2023/10/07 02:51:52;;;;;;;16.80;5.20;;;18.10;99.90;;;;;;4897346;29;20526;-81
2023/10/07 02:54:20;;;;;;;12.60;4.30;;;18.10;99.90;;;;;;4892860;29;20422;-81
2023/10/07 02:57:07;;;;;;;16.42;4.30;;;17.90;99.90;;;;;;4895000;29;20418;-80
2023/10/07 02:59:41;;;;;;;16.27;4.63;;;18.00;99.90;;;;;;4915527;29;20516;-81
2023/10/07 03:04:44;;;;;;;12.83;4.20;;;18.10;99.90;;;;;;4888298;29;20504;-80
2023/10/07 03:07:16;;;;;;;16.20;4.57;;;17.90;99.90;;;;;;4895951;29;20421;-80
2023/10/07 03:09:52;;;;;;;14.75;4.10;;;18.20;99.90;;;;;;4883811;29;20423;-81
2023/10/07 03:12:27;;;;;;;15.68;4.57;;;17.90;99.90;;;;;;4913486;29;20433;-83
2023/10/07 03:14:57;;;;;;;12.73;4.07;;;17.90;99.90;;;;;;4910921;29;20415;-80
2023/10/07 03:17:33;;;;;;;11.48;4.38;;;17.80;99.90;;;;;;4903169;29;20438;-81
2023/10/07 03:20:23;;;;;;;12.93;4.38;;;18.00;99.90;;;;;;4899662;29;20421;-81
2023/10/07 03:23:10;;;;;;;13.32;4.00;;;18.00;99.90;;;;;;4911277;29;20454;-81
2023/10/07 03:26:16;;;;;;;15.60;4.57;;;17.80;99.90;;;;;;4905373;29;20423;-81
2023/10/07 03:28:24;;;;;;;14.70;4.47;;;18.10;99.90;;;;;;4901726;29;20445;-81
2023/10/07 03:30:52;;;;;;;13.10;4.40;;;17.90;99.90;;;;;;4901275;29;20444;-81
2023/10/07 03:34:08;;;;;;;13.75;4.15;;;17.80;99.90;;;;;;4916335;29;20441;-82
2023/10/07 03:41:41;;;;;;;13.25;4.40;;;17.70;99.90;;;;;;4911906;29;20425;-83
2023/10/07 03:44:07;;;;;;;16.70;4.47;;;17.80;99.90;;;;;;4900213;29;20428;-82
2023/10/07 03:46:35;;;;;;;17.43;4.57;;;17.90;99.90;;;;;;4901338;29;20785;-83
2023/10/07 03:49:01;;;;;;;16.95;4.40;;;18.00;99.90;;;;;;4901836;29;20520;-83
2023/10/07 03:51:30;;;;;;;16.23;5.03;;;17.70;99.90;;;;;;4900986;29;20441;-84
2023/10/07 03:54:09;;;;;;;13.90;4.13;;;17.80;99.90;;;;;;4886313;29;20417;-83
2023/10/07 03:56:37;;;;;;;17.67;4.13;;;17.80;99.90;;;;;;4903333;29;20492;-83
2023/10/07 03:59:05;;;;;;;14.80;4.63;;;17.80;99.90;;;;;;4898370;29;20845;-83
2023/10/07 04:01:35;;;;;;;17.35;4.45;;;17.80;99.90;;;;;;4904741;29;20438;-83
2023/10/07 04:04:01;;;;;;;22.40;4.35;;;17.80;99.90;;;;;;4882809;29;20529;-83
2023/10/07 04:06:30;;;;;;;13.50;4.10;;;17.80;99.90;;;;;;4893363;29;20505;-82
2023/10/07 04:09:05;;;;;;;15.57;4.22;;;17.80;99.90;;;;;;4897934;29;20925;-83
2023/10/07 04:11:36;;;;;;;15.48;4.68;;;18.20;99.90;;;;;;4909055;29;20444;-83
2023/10/07 04:17:11;;;;;;;18.05;4.78;;;17.80;99.90;;;;;;4874742;29;20438;-82
2023/10/07 04:19:42;;;;;;;14.27;4.60;;;17.80;99.90;;;;;;4894661;29;20422;-83
2023/10/07 04:22:11;;;;;;;13.15;4.38;;;17.80;99.90;;;;;;4918032;29;20508;-82
2023/10/07 04:24:44;;;;;;;14.77;4.70;;;17.80;99.90;;;;;;4909377;29;20508;-82
2023/10/07 04:27:18;;;;;;;14.90;4.30;;;18.00;99.90;;;;;;4897260;29;20470;-82
2023/10/07 04:29:45;;;;;;;15.13;4.28;;;18.00;99.90;;;;;;4892961;29;20426;-82
2023/10/07 04:32:14;;;;;;;15.20;4.20;;;18.00;99.90;;;;;;4891699;29;20477;-82
2023/10/07 04:35:40;;;;;;;17.00;4.40;;;17.80;99.90;;;;;;4851417;29;20474;-82
2023/10/07 04:40:53;;;;;;;14.43;4.40;;;17.90;99.90;;;;;;4918562;29;20424;-82
2023/10/07 04:45:49;;;;;;;11.27;4.10;;;17.90;99.90;;;;;;4897343;29;20411;-82
2023/10/07 04:48:40;;;;;;;16.80;4.47;;;17.90;99.90;;;;;;4870647;29;20415;-82
2023/10/07 04:51:12;;;;;;;13.65;4.50;;;17.90;99.90;;;;;;4883378;29;20440;-82
2023/10/07 04:53:39;;;;;;;19.33;4.68;;;18.00;99.90;;;;;;4879339;29;20426;-82
2023/10/07 04:56:10;;;;;;;15.88;4.43;;;17.80;99.90;;;;;;4864514;29;20475;-83
2023/10/07 04:58:39;;;;;;;16.02;4.25;;;18.00;99.90;;;;;;4887686;29;20498;-82
2023/10/07 05:03:55;;;;;;;12.73;3.75;;;17.80;99.90;;;;;;4884367;29;20432;-82
2023/10/07 05:06:24;;;;;;;13.15;4.03;;;17.70;99.90;;;;;;4864389;29;20432;-82
2023/10/07 05:08:51;;;;;;;13.15;3.85;;;17.90;99.90;;;;;;4899791;29;20427;-82
2023/10/07 05:11:20;;;;;;;14.38;3.85;;;18.00;99.90;;;;;;4886109;29;20533;-82
2023/10/07 05:13:46;;;;;;;13.40;3.60;;;17.90;99.90;;;;;;4880444;29;20486;-81
2023/10/07 05:16:15;;;;;;;13.15;3.63;;;17.70;99.90;;;;;;4885138;29;20424;-81
2023/10/07 05:18:42;;;;;;;13.95;3.88;;;18.00;99.90;;;;;;4887483;29;20502;-81
2023/10/07 05:21:08;;;;;;;13.25;3.50;;;17.80;99.90;;;;;;4877951;29;20420;-82
2023/10/07 05:23:34;;;;;;;13.00;3.65;;;17.70;99.90;;;;;;4886618;29;20783;-81
2023/10/07 05:26:03;;;;;;;12.83;3.83;;;17.70;99.90;;;;;;4880190;29;20475;-82
2023/10/07 05:28:33;;;;;;;13.00;4.03;;;17.90;99.90;;;;;;4888461;29;20450;-82
2023/10/07 05:31:03;;;;;;;11.52;3.60;;;17.70;99.90;;;;;;4880642;29;20447;-82
2023/10/07 05:33:32;;;;;;;15.25;4.15;;;17.80;99.90;;;;;;4870796;29;20500;-82
2023/10/07 05:36:16;;;;;;;14.27;4.20;;;17.70;99.90;;;;;;4876012;29;21043;-82
2023/10/07 05:38:50;;;;;;;13.73;4.10;;;17.90;99.90;;;;;;4879431;29;20425;-82
2023/10/07 05:41:16;;;;;;;13.35;3.67;;;17.70;99.90;;;;;;4877656;29;20511;-82
2023/10/07 05:43:43;;;;;;;15.48;3.55;;;17.60;99.90;;;;;;4883385;29;20510;-82
2023/10/07 05:46:10;;;;;;;13.52;3.90;;;17.60;99.90;;;;;;4880846;29;20434;-83
2023/10/07 05:48:38;;;;;;;15.75;4.18;;;17.80;99.90;;;;;;4889810;29;20423;-82
2023/10/07 05:51:08;;;;;;;12.82;3.63;;;17.70;99.90;;;;;;4894204;29;20939;-82
2023/10/07 05:53:37;;;;;;;15.07;4.60;;;17.70;99.90;;;;;;4877443;29;20423;-82
2023/10/07 05:56:07;;;;;;;13.70;3.50;;;17.60;99.90;;;;;;4877139;29;20532;-82
2023/10/07 05:58:37;;;;;;;15.07;4.15;;;17.70;99.90;;;;;;4870336;29;20487;-82
2023/10/07 06:01:12;;;;;;;14.85;3.92;;;17.40;99.90;;;;;;4863471;29;20961;-82
2023/10/07 06:03:38;;;;;;;15.13;4.00;;;17.60;99.90;;;;;;4885540;29;20430;-82
2023/10/07 06:06:06;;;;;;;13.20;4.30;;;17.70;99.90;;;;;;4893293;29;20482;-82
2023/10/07 06:08:32;;;;;;;13.33;3.90;;;17.80;99.90;;;;;;4894651;29;20621;-81
2023/10/07 06:11:00;;;;;;;13.27;3.75;;;17.50;99.90;;;;;;4866268;29;20967;-81
2023/10/07 06:13:28;;;;;;;13.70;3.90;;;17.60;99.90;;;;;;4905974;29;20895;-77
2023/10/07 06:15:58;;;;;;;18.98;4.10;;;17.20;99.90;;;;;;4888036;29;20430;-77
2023/10/07 06:18:25;;;;;;;16.15;3.90;;;17.60;99.90;;;;;;4889642;29;20446;-78
2023/10/07 06:20:51;;;;;;;12.27;4.20;;;17.40;99.90;;;;;;4897302;29;20507;-78
2023/10/07 06:23:18;;;;;;;17.23;4.03;;;17.40;99.90;;;;;;4893905;29;20423;-78
2023/10/07 06:25:49;;;;;;;13.18;3.97;;;17.50;99.90;;;;;;4886643;29;20455;-78
2023/10/07 06:31:11;;;;;;;15.40;4.20;;;17.40;99.90;;;;;;4881395;29;20448;-79
2023/10/07 06:33:41;;;;;;;14.07;4.28;;;17.50;99.90;;;;;;4897566;29;20478;-78
2023/10/07 06:36:12;;;;;;;16.00;4.07;;;16.10;99.90;;;;;;4892927;29;20447;-78
2023/10/07 06:38:52;;;;;;;16.02;4.00;;;17.50;99.90;;;;;;4899595;29;20427;-79
2023/10/07 06:41:19;;;;;;;15.10;4.43;;;17.40;99.90;;;;;;4887477;29;20438;-79
2023/10/07 06:43:47;;;;;;;14.52;4.50;;;17.50;99.90;;;;;;4900440;29;20424;-81
2023/10/07 06:46:13;;;;;;;14.48;3.88;;;17.50;99.90;;;;;;4903886;29;20437;-79
2023/10/07 06:48:39;;;;;;;14.20;4.35;;;17.70;99.90;;;;;;4893697;29;20438;-79
2023/10/07 06:51:06;;;;;;;14.50;4.28;;;17.40;99.90;;;;;;4897580;29;20791;-78
2023/10/07 06:53:37;;;;;;;17.23;4.65;;;17.60;99.90;;;;;;4892230;29;20417;-73
2023/10/07 06:56:04;;;;;;;14.82;4.65;;;17.20;99.90;;;;;;4881761;29;20455;-73
2023/10/07 06:58:29;;;;;;;12.07;4.15;;;17.70;99.90;;;;;;4882773;29;20408;-74
2023/10/07 07:01:10;;;;;;;13.45;4.10;;;17.60;99.90;;;;;;4891466;29;20446;-75
2023/10/07 07:03:36;;;;;;;16.30;4.40;;;17.70;99.90;;;;;;4902290;29;20414;-74
2023/10/07 07:06:06;;;;;;;13.00;4.20;;;17.70;99.90;;;;;;4896054;29;20451;-75
2023/10/07 07:08:34;;;;;;;17.42;4.25;;;17.50;99.90;;;;;;4914472;29;20414;-74
2023/10/07 07:11:09;;;;;;;12.60;4.70;;;17.80;99.90;;;;;;4882899;29;21000;-79
2023/10/07 07:13:35;;;;;;;13.50;4.45;;;17.80;99.90;;;;;;4883524;29;20897;-79
2023/10/07 07:16:06;;;;;;;17.20;4.63;;;17.50;99.90;;;;;;4886768;29;20531;-78
2023/10/07 07:18:39;;;;;;;17.05;4.80;;;17.80;99.90;;;;;;4896169;29;20434;-80
2023/10/07 07:23:51;;;;;;;17.23;4.50;;;17.80;99.90;;;;;;4898800;29;20425;-78
2023/10/07 07:26:21;;;;;;;13.80;4.20;;;18.00;99.90;;;;;;4904055;29;20925;-79
2023/10/07 07:28:48;;;;;;;15.38;4.45;;;17.80;99.90;;;;;;4888223;29;20447;-79
2023/10/07 07:31:18;;;;;;;17.25;5.05;;;17.60;99.90;;;;;;4893796;29;20516;-80
2023/10/07 07:33:48;;;;;;;16.33;4.78;;;17.70;99.90;;;;;;4897966;29;20485;-80
2023/10/07 07:36:39;;;;;;;18.30;4.68;;;17.90;99.90;;;;;;4908853;29;20564;-81
2023/10/07 07:39:09;;;;;;;14.48;4.28;;;17.90;99.90;;;;;;4901397;29;20460;-79
2023/10/07 07:41:38;;;;;;;14.88;4.30;;;18.00;99.90;;;;;;4893853;29;20953;-80
2023/10/07 07:44:11;;;;;;;16.75;4.70;;;17.90;99.90;;;;;;4884708;29;21041;-78
2023/10/07 07:46:54;;;;;;;14.00;4.45;;;18.10;99.90;;;;;;4899036;29;20425;-79
2023/10/07 07:49:27;;;;;;;13.27;4.18;;;18.20;99.90;;;;;;4888037;29;20429;-79
2023/10/07 07:51:53;;;;;;;14.02;4.72;;;18.00;99.90;;;;;;4908145;29;20974;-79
2023/10/07 07:54:19;;;;;;;15.73;4.40;;;18.00;99.90;;;;;;4900307;29;20423;-79
2023/10/07 07:56:48;;;;;;;14.57;4.50;;;18.30;99.90;;;;;;4892839;29;20426;-79
2023/10/07 07:59:14;;;;;;;12.93;4.55;;;18.00;99.90;;;;;;4885046;29;20419;-75
2023/10/07 08:02:02;;;;;;;14.48;4.75;;;18.40;99.90;;;;;;4890670;29;20486;-75
2023/10/07 08:04:47;;;;;;;15.50;4.88;;;17.90;99.90;;;;;;4887107;29;20423;-75
2023/10/07 08:09:44;;;;;;;15.57;4.93;;;18.40;99.90;;;;;;4899930;29;20926;-76
2023/10/07 08:12:10;;;;;;;14.85;4.50;;;18.10;99.90;;;;;;4898104;29;20501;-75
2023/10/07 08:14:39;;;;;;;14.32;5.05;;;18.10;99.90;;;;;;4885435;29;20430;-76
2023/10/07 08:17:08;;;;;;;14.13;4.55;;;18.10;99.90;;;;;;4891692;29;20488;-73
2023/10/07 08:19:35;;;;;;;14.45;4.55;;;18.20;99.90;;;;;;4900424;29;20930;-75
2023/10/07 08:22:03;;;;;;;14.82;4.68;;;18.10;99.90;;;;;;4888716;29;20444;-75
2023/10/07 08:24:31;;;;;;;16.38;4.95;;;18.30;99.90;;;;;;4881853;29;20432;-74
2023/10/07 08:27:03;;;;;;;13.40;4.75;;;18.30;99.90;;;;;;4891145;29;20486;-73
2023/10/07 08:29:33;;;;;;;14.30;4.50;;;18.20;99.90;;;;;;4885795;29;20435;-76
2023/10/07 08:32:37;;;;;;;14.65;4.53;;;18.30;99.90;;;;;;4886174;29;20443;-76
2023/10/07 08:34:59;;;;;;;13.43;4.45;;;18.30;99.90;;;;;;4883094;29;20436;-74
2023/10/07 08:37:32;;;;;;;12.93;4.45;;;18.40;99.90;;;;;;4885344;29;20425;-76
2023/10/07 08:40:08;;;;;;;12.35;4.13;;;18.50;99.90;;;;;;4892159;29;20419;-73
2023/10/07 08:42:37;;;;;;;14.70;4.53;;;18.30;99.90;;;;;;4884762;29;20491;-75
2023/10/07 08:45:14;;;;;;;12.45;4.45;;;18.20;99.90;;;;;;4891745;29;20848;-74
2023/10/07 08:47:49;;;;;;;14.07;4.13;;;18.30;99.90;;;;;;4870566;29;20455;-73
2023/10/07 08:50:23;;;;;;;17.45;4.72;;;18.40;99.90;;;;;;4874731;29;20425;-74
2023/10/07 08:53:03;;;;;;;15.77;4.68;;;18.60;99.90;;;;;;4887516;29;20431;-75
2023/10/07 08:55:32;;;;;;;16.85;4.80;;;18.30;99.90;;;;;;4890119;29;20422;-75
2023/10/07 08:58:02;;;;;;;16.27;4.95;;;18.40;99.90;;;;;;4887090;29;20466;-74
2023/10/07 09:00:32;;;;;;;13.80;4.68;;;18.80;99.90;;;;;;4885616;29;20438;-74
2023/10/07 09:02:59;;;;;;;16.35;4.88;;;18.50;99.90;;;;;;4888604;29;20488;-73
2023/10/07 09:05:29;;;;;;;15.77;4.67;;;18.40;99.90;;;;;;4893309;29;20427;-74
2023/10/07 09:07:56;;;;;;;17.30;4.63;;;18.50;99.90;;;;;;4882424;29;20444;-75
2023/10/07 09:10:28;;;;;;;15.20;4.50;;;18.70;99.90;;;;;;4880374;29;20443;-75
2023/10/07 09:13:00;;;;;;;17.75;5.10;;;18.90;99.90;;;;;;4884379;29;20431;-75
2023/10/07 09:15:26;;;;;;;13.50;5.00;;;18.70;99.90;;;;;;4889040;29;20470;-75
2023/10/07 09:18:04;;;;;;;18.07;4.97;;;18.70;99.90;;;;;;4872821;29;20460;-74
2023/10/07 09:20:31;;;;;;;17.08;5.07;;;18.50;99.90;;;;;;4884524;29;20796;-75
2023/10/07 09:23:06;;;;;;;16.40;5.18;;;18.70;99.90;;;;;;4893289;29;20442;-77
2023/10/07 09:25:32;;;;;;;14.98;4.82;;;18.40;99.90;;;;;;4887737;29;20822;-78
2023/10/07 09:28:02;;;;;;;15.70;5.07;;;18.80;99.90;;;;;;4895956;29;20425;-79
2023/10/07 09:30:36;;;;;;;13.77;4.57;;;19.00;99.90;;;;;;4883302;29;20432;-77
2023/10/07 09:33:13;;;;;;;16.08;4.95;;;19.20;99.90;;;;;;4911657;29;20429;-78
2023/10/07 09:35:42;;;;;;;14.68;5.03;;;18.80;99.90;;;;;;4911577;29;20444;-78
2023/10/07 09:38:12;;;;;;;11.40;4.27;;;18.60;99.90;;;;;;4910560;29;20438;-77
2023/10/07 09:43:26;;;;;;;16.17;5.60;;;18.90;99.90;;;;;;4901034;29;20454;-79
2023/10/07 09:45:53;;;;;;;15.93;4.82;;;19.00;99.90;;;;;;4882911;29;20444;-79
2023/10/07 09:48:23;;;;;;;16.23;5.00;;;18.80;99.90;;;;;;4904608;29;20575;-80
2023/10/07 09:50:57;;;;;;;18.77;5.00;;;19.10;99.90;;;;;;4884717;29;20587;-80
2023/10/07 09:53:35;;;;;;;13.27;4.78;;;19.00;99.90;;;;;;4883878;29;20498;-79
2023/10/07 09:56:11;;;;;;;17.67;5.20;;;18.90;99.90;;;;;;4906951;29;20433;-78
2023/10/07 09:58:59;;;;;;;14.20;4.78;;;18.90;99.90;;;;;;4895645;29;20954;-78
2023/10/07 10:01:38;;;;;;;15.57;4.50;;;18.80;99.90;;;;;;4894564;29;20772;-78
2023/10/07 10:04:24;;;;;;;14.40;5.13;;;19.10;99.90;;;;;;4888690;29;20432;-77
2023/10/07 10:07:05;;;;;;;16.27;5.15;;;19.20;99.90;;;;;;4889509;29;20445;-77
2023/10/07 10:09:45;;;;;;;12.43;4.30;;;19.40;99.90;;;;;;4886956;29;20438;-78
2023/10/07 10:12:27;;;;;;;13.98;4.90;;;19.20;99.90;;;;;;4886499;29;20815;-74
2023/10/07 10:17:48;;;;;;;16.67;4.53;;;19.60;99.90;;;;;;4882269;29;20444;-75
2023/10/07 10:20:18;;;;;;;15.57;4.87;;;19.30;99.90;;;;;;4900336;29;20939;-75
2023/10/07 10:22:57;;;;;;;15.00;4.63;;;17.50;99.90;;;;;;4881629;29;20432;-75
2023/10/07 10:28:02;;;;;;;13.77;4.30;;;19.40;99.90;;;;;;4881853;29;20436;-75
2023/10/07 10:30:29;;;;;;;10.95;4.53;;;19.60;99.90;;;;;;4880982;29;20772;-75
2023/10/07 10:33:00;;;;;;;13.00;4.13;;;19.60;99.90;;;;;;4882836;29;20924;-74
2023/10/07 10:35:27;;;;;;;15.82;4.82;;;19.40;99.90;;;;;;4879584;29;20444;-74
2023/10/07 10:37:59;;;;;;;13.68;4.10;;;20.10;99.90;;;;;;4879245;29;20436;-75
2023/10/07 10:40:31;;;;;;;14.10;4.78;;;19.30;99.90;;;;;;4888606;29;20495;-75
2023/10/07 10:42:58;;;;;;;14.00;5.35;;;19.70;99.90;;;;;;4882479;29;20490;-75
2023/10/07 10:45:26;;;;;;;17.08;4.68;;;19.50;99.90;;;;;;4880393;29;20479;-74
2023/10/07 10:47:58;;;;;;;15.05;4.45;;;19.40;99.90;;;;;;4889196;29;20419;-76
2023/10/07 10:50:24;;;;;;;12.97;4.23;;;19.50;99.90;;;;;;4879339;29;20506;-76
2023/10/07 10:52:50;;;;;;;15.55;4.80;;;19.50;99.90;;;;;;4893085;29;20861;-75
2023/10/07 10:55:17;;;;;;;14.48;4.93;;;19.60;99.90;;;;;;4886371;29;20492;-76
2023/10/07 10:57:43;;;;;;;13.70;4.65;;;19.30;99.90;;;;;;4883260;29;20419;-76
2023/10/07 11:00:19;;;;;;;12.23;4.55;;;19.80;99.90;;;;;;4886833;29;20455;-76
2023/10/07 11:02:48;;;;;;;11.50;4.70;;;19.60;99.90;;;;;;4881823;29;20447;-76
2023/10/07 11:05:15;;;;;;;12.13;4.77;;;19.50;99.90;;;;;;4890428;29;20874;-74
2023/10/07 11:07:43;;;;;;;11.63;4.20;;;19.50;99.90;;;;;;4886605;29;20434;-75
2023/10/07 11:10:10;;;;;;;14.25;4.53;;;19.50;99.90;;;;;;4879704;29;20436;-76
2023/10/07 11:12:37;;;;;;;12.95;4.82;;;19.50;99.90;;;;;;4879769;29;20437;-75
2023/10/07 11:15:13;;;;;;;14.75;4.75;;;20.70;99.90;;;;;;4879422;29;20440;-76
2023/10/07 11:17:41;;;;;;;14.10;4.90;;;19.50;99.90;;;;;;4879918;29;20470;-76
2023/10/07 11:20:09;;;;;;;12.30;4.35;;;19.60;99.90;;;;;;4880152;29;20428;-76
2023/10/07 11:22:44;;;;;;;15.02;4.68;;;19.80;99.90;;;;;;4885946;29;20616;-75
2023/10/07 11:25:16;;;;;;;12.37;4.50;;;19.60;99.90;;;;;;4890997;29;20434;-75
2023/10/07 11:27:48;;;;;;;15.45;4.72;;;19.50;99.90;;;;;;4882530;29;20437;-75
2023/10/07 11:30:14;;;;;;;10.85;4.20;;;19.40;99.90;;;;;;4892239;29;20442;-73
2023/10/07 11:32:42;;;;;;;14.03;5.27;;;19.60;99.90;;;;;;4885312;29;20430;-76
2023/10/07 11:35:27;;;;;;;14.68;5.07;;;19.60;99.90;;;;;;4827854;29;1802390;-76
2023/10/07 11:37:57;;;;;;;11.95;4.45;;;19.50;99.90;;;;;;4891018;29;20445;-75
2023/10/07 11:40:24;;;;;;;17.05;4.50;;;19.60;99.90;;;;;;4893740;29;20929;-76
2023/10/07 11:42:52;;;;;;;13.47;4.40;;;19.40;99.90;;;;;;4900759;29;20776;-76
2023/10/07 11:45:22;;;;;;;14.45;4.32;;;19.50;99.90;;;;;;4883050;29;20485;-75
2023/10/07 11:47:55;;;;;;;13.07;4.65;;;19.40;99.90;;;;;;4883951;29;20483;-75
2023/10/07 11:50:21;;;;;;;14.35;4.53;;;19.40;99.90;;;;;;4878533;29;20474;-76
2023/10/07 11:52:46;;;;;;;13.88;4.75;;;19.00;99.90;;;;;;4892872;29;20511;-77
2023/10/07 11:55:12;;;;;;;18.58;5.30;;;19.60;99.90;;;;;;4894938;29;20495;-76
2023/10/07 11:57:38;;;;;;;12.13;4.57;;;19.30;99.90;;;;;;4894302;29;20433;-76
2023/10/07 12:00:23;;;;;;;12.10;4.32;;;20.10;99.90;;;;;;4890678;29;20634;-76
2023/10/07 12:02:52;;;;;;;15.60;4.97;;;19.60;99.90;;;;;;4888323;29;20438;-76
2023/10/07 12:05:18;;;;;;;14.73;5.13;;;19.80;99.90;;;;;;4890210;29;20982;-75
2023/10/07 12:07:47;;;;;;;16.70;4.80;;;19.40;99.90;;;;;;4899538;29;20477;-76
2023/10/07 12:10:16;;;;;;;15.10;4.90;;;19.60;99.90;;;;;;4886054;29;20586;-75
2023/10/07 12:12:43;;;;;;;17.00;5.03;;;19.60;99.90;;;;;;4888570;29;20458;-75
2023/10/07 12:15:12;;;;;;;15.55;5.03;;;19.60;99.90;;;;;;4884597;29;20415;-75
2023/10/07 12:17:42;;;;;;;13.80;4.65;;;19.50;99.90;;;;;;4891709;29;20435;-76
2023/10/07 12:20:12;;;;;;;13.75;4.82;;;19.60;99.90;;;;;;4884723;29;20499;-76
2023/10/07 12:22:42;;;;;;;13.55;4.90;;;19.30;99.90;;;;;;4905704;29;20431;-77
2023/10/07 12:25:15;;;;;;;15.68;4.65;;;19.60;99.90;;;;;;4889073;29;20430;-74
2023/10/07 12:27:47;;;;;;;17.25;5.22;;;19.50;99.90;;;;;;4889448;29;20427;-75
2023/10/07 12:30:17;;;;;;;14.02;4.63;;;19.40;99.90;;;;;;4896179;29;20505;-75
2023/10/07 12:32:43;;;;;;;23.75;4.65;;;19.20;99.90;;;;;;4889618;29;20441;-75
2023/10/07 12:35:10;;;;;;;12.13;4.78;;;19.10;99.90;;;;;;4892993;29;20424;-75
2023/10/07 12:37:40;;;;;;;12.98;4.85;;;19.30;99.90;;;;;;4897551;29;20427;-76
2023/10/07 12:40:11;;;;;;;12.18;4.53;;;19.50;99.90;;;;;;4886218;29;20445;-75
2023/10/07 12:42:40;;;;;;;14.15;4.25;;;19.90;99.90;;;;;;4898607;29;20438;-75
2023/10/07 12:45:08;;;;;;;16.38;4.85;;;19.30;99.90;;;;;;4889576;29;20411;-76
2023/10/07 12:47:34;;;;;;;13.52;4.38;;;19.30;99.90;;;;;;4894416;29;20429;-75
2023/10/07 12:50:20;;;;;;;12.73;4.45;;;19.40;99.90;;;;;;4896504;29;20482;-76
2023/10/07 12:52:53;;;;;;;15.40;4.68;;;19.40;99.90;;;;;;4890251;29;20441;-75
2023/10/07 12:55:19;;;;;;;13.00;5.05;;;19.50;99.90;;;;;;4888218;29;20448;-76
2023/10/07 12:57:49;;;;;;;17.40;5.03;;;19.50;99.90;;;;;;4888518;29;20459;-75
2023/10/07 13:00:32;;;;;;;13.05;4.60;;;19.50;99.90;;;;;;4893649;29;20439;-75
2023/10/07 13:02:58;;;;;;;12.43;4.60;;;19.30;99.90;;;;;;4883412;29;20503;-76
2023/10/07 13:05:24;;;;;;;16.90;5.35;;;19.10;99.90;;;;;;4883722;29;20416;-75
2023/10/07 13:07:53;;;;;;;12.85;4.78;;;19.60;99.90;;;;;;4892053;29;20420;-75
2023/10/07 13:10:20;;;;;;;13.57;4.93;;;19.30;99.90;;;;;;4880902;29;20444;-74
2023/10/07 13:12:46;;;;;;;14.20;4.85;;;18.90;99.90;;;;;;4890763;29;20976;-74
2023/10/07 13:15:16;;;;;;;13.23;4.90;;;19.30;99.90;;;;;;4885999;29;20456;-74
2023/10/07 13:17:46;;;;;;;13.05;5.00;;;19.30;99.90;;;;;;4888735;29;20421;-75
2023/10/07 13:20:20;;;;;;;14.48;5.57;;;19.10;99.90;;;;;;4857204;29;20428;-75
2023/10/07 13:22:49;;;;;;;14.52;4.80;;;19.20;99.90;;;;;;4883137;29;20896;-75
2023/10/07 13:25:17;;;;;;;13.80;4.90;;;19.20;99.90;;;;;;4891063;29;20422;-75
2023/10/07 13:27:43;;;;;;;13.48;5.10;;;19.10;99.90;;;;;;4887958;29;20513;-76
2023/10/07 13:30:13;;;;;;;16.13;5.17;;;19.00;99.90;;;;;;4890676;29;20824;-75
2023/10/07 13:32:46;;;;;;;14.93;4.88;;;19.00;99.90;;;;;;4895781;29;20433;-75
2023/10/07 13:35:17;;;;;;;12.00;4.68;;;18.90;99.90;;;;;;4891656;29;20472;-75
2023/10/07 13:37:44;;;;;;;15.30;5.05;;;19.00;99.90;;;;;;4891106;29;20433;-75
2023/10/07 13:40:16;;;;;;;12.90;5.27;;;18.80;99.90;;;;;;4890546;29;20421;-75